Time;durP1;ratioP1;P1;durP2;ratioP2;P2;SDS_P1;SDS_P2;PMS_P1;PMS_P2;Temp;Humidity;BMP_temperature;BMP_pressure;BME280_temperature;BME280_humidity;BME280_pressure;Samples;Min_cycle;Max_cycle;Signal;HPM_P1;HPM_P2
2023/10/31 00:02:20;;;;;;;3.93;1.20;;;31.20;1.00;;;;;;5011426;28;20186;-67
2023/10/31 00:04:47;;;;;;;8.10;1.27;;;31.10;1.00;;;;;;5011535;28;20209;-67
2023/10/31 00:07:14;;;;;;;5.40;1.25;;;31.70;1.00;;;;;;4992599;28;20190;-67
2023/10/31 00:09:41;;;;;;;3.40;0.70;;;31.40;1.00;;;;;;4992105;28;20187;-68
2023/10/31 00:12:09;;;;;;;3.13;1.08;;;31.20;1.00;;;;;;4992517;28;20170;-67
2023/10/31 00:14:36;;;;;;;3.50;0.90;;;31.50;1.00;;;;;;4992675;28;20175;-68
2023/10/31 00:17:04;;;;;;;8.10;1.00;;;31.60;1.00;;;;;;5010289;28;20220;-67
2023/10/31 00:19:31;;;;;;;9.80;1.05;;;31.60;1.00;;;;;;5012244;28;20264;-68
2023/10/31 00:21:58;;;;;;;8.27;1.67;;;31.20;1.00;;;;;;5012109;28;20255;-69
2023/10/31 00:24:25;;;;;;;3.00;0.80;;;31.30;1.00;;;;;;5011843;28;20197;-69
2023/10/31 00:26:53;;;;;;;0.95;0.57;;;30.90;1.00;;;;;;5011760;28;20273;-67
2023/10/31 00:29:20;;;;;;;9.87;1.00;;;30.90;1.00;;;;;;5011796;28;20186;-68
2023/10/31 00:31:48;;;;;;;5.00;1.00;;;30.90;1.00;;;;;;5011589;28;20590;-69
2023/10/31 00:34:15;;;;;;;3.10;1.05;;;31.20;1.00;;;;;;5012568;28;20182;-70
2023/10/31 00:36:42;;;;;;;2.65;0.95;;;31.80;1.00;;;;;;5012577;28;20194;-69
2023/10/31 00:39:10;;;;;;;4.00;0.98;;;31.50;1.00;;;;;;5012575;28;20182;-68
2023/10/31 00:41:38;;;;;;;12.63;1.40;;;31.50;1.00;;;;;;5013465;28;20181;-68
2023/10/31 00:44:05;;;;;;;5.27;0.90;;;31.50;1.00;;;;;;5012929;28;20210;-69
2023/10/31 00:46:32;;;;;;;5.07;1.13;;;31.40;1.00;;;;;;5012942;28;20268;-70
2023/10/31 00:49:00;;;;;;;1.67;0.60;;;31.30;1.00;;;;;;5013075;28;20273;-70
2023/10/31 00:51:27;;;;;;;2.47;0.80;;;31.10;1.00;;;;;;5012901;28;20276;-71
2023/10/31 00:53:54;;;;;;;2.10;0.60;;;30.80;1.00;;;;;;5012759;28;20261;-69
2023/10/31 00:56:22;;;;;;;0.68;0.32;;;31.40;1.00;;;;;;5013144;28;20182;-69
2023/10/31 00:58:49;;;;;;;2.95;0.60;;;31.30;1.00;;;;;;5012836;28;20190;-70
2023/10/31 01:01:16;;;;;;;1.70;0.40;;;31.40;1.00;;;;;;5013132;28;20182;-69
2023/10/31 01:03:43;;;;;;;1.13;0.33;;;31.60;1.00;;;;;;5013342;28;20182;-70
2023/10/31 01:06:11;;;;;;;0.88;0.40;;;31.50;1.00;;;;;;5012707;28;20607;-71
2023/10/31 01:08:38;;;;;;;1.60;0.50;;;30.80;1.00;;;;;;5012814;28;20208;-71
2023/10/31 01:11:06;;;;;;;3.53;0.40;;;31.10;1.00;;;;;;5013048;28;20186;-71
2023/10/31 01:13:33;;;;;;;2.20;0.28;;;31.20;1.00;;;;;;5012793;28;20224;-71
2023/10/31 01:16:00;;;;;;;1.63;0.30;;;31.10;1.00;;;;;;5013053;28;20632;-71
2023/10/31 01:18:28;;;;;;;2.53;0.50;;;31.30;1.00;;;;;;5012817;28;20269;-71
2023/10/31 01:20:55;;;;;;;5.80;0.50;;;31.40;1.00;;;;;;5013856;28;20178;-70
2023/10/31 01:23:22;;;;;;;0.52;0.35;;;30.90;1.00;;;;;;5016411;28;20208;-71
2023/10/31 01:25:50;;;;;;;3.47;0.40;;;31.20;1.00;;;;;;5016386;28;20641;-72
2023/10/31 01:28:17;;;;;;;2.23;0.50;;;31.70;1.00;;;;;;5016168;28;20170;-70
2023/10/31 01:30:44;;;;;;;1.27;0.37;;;31.90;1.00;;;;;;5016290;28;20180;-70
2023/10/31 01:33:12;;;;;;;1.03;0.60;;;31.90;1.00;;;;;;5016146;28;20193;-71
2023/10/31 01:35:39;;;;;;;1.25;0.40;;;31.00;1.00;;;;;;5014827;28;20291;-71
2023/10/31 01:38:06;;;;;;;1.60;0.37;;;31.20;1.00;;;;;;5016280;28;20548;-72
2023/10/31 01:40:34;;;;;;;5.77;0.43;;;31.70;1.00;;;;;;5016253;28;20169;-72
2023/10/31 01:43:01;;;;;;;2.03;0.37;;;31.60;1.00;;;;;;5016323;28;20181;-71
2023/10/31 01:45:28;;;;;;;4.90;0.27;;;31.30;1.00;;;;;;5015921;28;20249;-73
2023/10/31 01:47:55;;;;;;;0.60;0.40;;;31.40;1.00;;;;;;5016356;28;20178;-72
2023/10/31 01:50:23;;;;;;;2.83;0.40;;;31.50;1.00;;;;;;5015756;28;20313;-70
2023/10/31 01:52:50;;;;;;;2.97;0.37;;;31.40;1.00;;;;;;5016203;28;20174;-70
2023/10/31 01:55:18;;;;;;;2.10;0.30;;;31.20;1.00;;;;;;5015823;28;20179;-70
2023/10/31 01:57:47;;;;;;;0.63;0.20;;;31.30;1.00;;;;;;5015805;28;20269;-71
2023/10/31 02:00:16;;;;;;;3.00;0.40;;;31.20;1.00;;;;;;5015700;28;20236;-71
2023/10/31 02:02:43;;;;;;;2.37;0.20;;;31.40;1.00;;;;;;5015814;28;20182;-71
2023/10/31 02:05:11;;;;;;;2.20;0.33;;;31.20;1.00;;;;;;5015732;28;20248;-71
2023/10/31 02:07:39;;;;;;;6.20;0.40;;;31.20;1.00;;;;;;5015692;28;20249;-71
2023/10/31 02:10:06;;;;;;;0.63;0.37;;;31.60;1.00;;;;;;5015535;28;20260;-71
2023/10/31 02:12:38;;;;;;;1.10;0.40;;;31.40;1.00;;;;;;5015603;28;20631;-71
2023/10/31 02:15:06;;;;;;;4.00;0.20;;;31.20;1.00;;;;;;5015335;28;20178;-71
2023/10/31 02:17:33;;;;;;;2.33;0.70;;;31.30;1.00;;;;;;5015689;28;20181;-71
2023/10/31 02:20:01;;;;;;;1.03;0.50;;;31.10;1.00;;;;;;5014373;28;20340;-71
2023/10/31 02:22:28;;;;;;;0.65;0.30;;;31.40;1.00;;;;;;5015458;28;20166;-69
2023/10/31 02:24:56;;;;;;;3.25;0.40;;;31.40;1.00;;;;;;5015136;28;20214;-71
2023/10/31 02:27:23;;;;;;;0.30;0.30;;;31.10;1.00;;;;;;5013946;28;20189;-70
2023/10/31 02:29:50;;;;;;;1.40;0.40;;;31.10;1.00;;;;;;5015277;28;20185;-71
2023/10/31 02:32:18;;;;;;;2.83;0.30;;;31.00;1.00;;;;;;5014037;28;20665;-70
2023/10/31 02:34:48;;;;;;;0.27;0.23;;;31.20;1.00;;;;;;5014931;28;20206;-70
2023/10/31 02:37:15;;;;;;;0.97;0.40;;;30.90;1.00;;;;;;5015176;28;20237;-70
2023/10/31 02:39:43;;;;;;;2.60;0.40;;;31.30;1.00;;;;;;5014913;28;20182;-72
2023/10/31 02:42:10;;;;;;;1.40;0.30;;;30.90;1.00;;;;;;5015190;28;20193;-71
2023/10/31 02:44:37;;;;;;;0.93;0.30;;;30.70;1.00;;;;;;5015029;28;20218;-71
2023/10/31 02:47:05;;;;;;;0.90;0.40;;;31.00;1.00;;;;;;5014952;28;20197;-72
2023/10/31 02:49:32;;;;;;;1.80;0.47;;;31.30;1.00;;;;;;5014787;28;20178;-72
2023/10/31 02:51:59;;;;;;;5.33;0.40;;;31.80;1.00;;;;;;5014584;28;20688;-71
2023/10/31 02:54:27;;;;;;;2.30;0.43;;;31.20;1.00;;;;;;5014972;28;20615;-71
2023/10/31 02:56:54;;;;;;;1.47;0.37;;;30.70;1.00;;;;;;5014800;28;20201;-69
2023/10/31 02:59:21;;;;;;;3.23;0.50;;;30.30;1.00;;;;;;5014784;28;20189;-70
2023/10/31 03:01:48;;;;;;;3.70;0.40;;;30.40;1.00;;;;;;5014808;28;20654;-72
2023/10/31 03:04:16;;;;;;;1.23;0.50;;;30.70;1.00;;;;;;5014704;28;20177;-70
2023/10/31 03:06:43;;;;;;;0.43;0.30;;;30.80;1.00;;;;;;5014583;28;20264;-71
2023/10/31 03:09:11;;;;;;;2.30;0.40;;;31.00;1.00;;;;;;5014396;28;20171;-70
2023/10/31 03:11:38;;;;;;;5.13;0.70;;;31.30;1.00;;;;;;5014461;28;20189;-72
2023/10/31 03:14:05;;;;;;;3.60;0.50;;;31.00;1.00;;;;;;5014334;28;20181;-69
2023/10/31 03:16:33;;;;;;;0.93;0.30;;;30.80;1.00;;;;;;5014309;28;20257;-70
2023/10/31 03:19:00;;;;;;;10.37;0.70;;;30.70;1.00;;;;;;5014577;28;20194;-72
2023/10/31 03:21:27;;;;;;;2.87;0.47;;;30.90;1.00;;;;;;5014091;28;20657;-70
2023/10/31 03:23:57;;;;;;;1.87;0.30;;;30.40;1.00;;;;;;5014218;28;20176;-69
2023/10/31 03:26:25;;;;;;;0.80;0.30;;;30.20;1.00;;;;;;5014131;28;20297;-70
2023/10/31 03:28:56;;;;;;;1.23;0.47;;;30.20;1.00;;;;;;5014244;28;20205;-70
2023/10/31 03:31:25;;;;;;;3.73;0.50;;;30.40;1.00;;;;;;5014120;28;20174;-72
2023/10/31 03:33:53;;;;;;;1.30;0.60;;;30.60;1.00;;;;;;5013989;28;20217;-71
2023/10/31 03:36:20;;;;;;;1.73;0.40;;;30.70;1.00;;;;;;5014359;28;20182;-71
2023/10/31 03:38:47;;;;;;;2.87;0.60;;;30.80;1.00;;;;;;5013832;28;20240;-71
2023/10/31 03:41:14;;;;;;;0.77;0.30;;;30.80;1.00;;;;;;5012592;28;20186;-70
2023/10/31 03:43:42;;;;;;;1.17;0.50;;;30.80;1.00;;;;;;5013468;28;20213;-71
2023/10/31 03:46:09;;;;;;;2.80;0.40;;;30.60;1.00;;;;;;5013761;28;20236;-70
2023/10/31 03:48:36;;;;;;;1.50;0.57;;;30.70;1.00;;;;;;5013684;28;20170;-72
2023/10/31 03:51:04;;;;;;;1.27;0.40;;;30.70;1.00;;;;;;5013479;28;20230;-70
2023/10/31 03:53:31;;;;;;;8.77;0.70;;;30.30;1.00;;;;;;5013674;28;20273;-70
2023/10/31 03:56:00;;;;;;;2.87;0.40;;;30.30;1.00;;;;;;5013763;28;20181;-70
2023/10/31 03:58:27;;;;;;;1.90;0.60;;;30.70;1.00;;;;;;5013561;28;20701;-71
2023/10/31 04:00:54;;;;;;;4.00;0.60;;;30.90;1.00;;;;;;5013583;28;20237;-70
2023/10/31 04:03:22;;;;;;;1.83;0.40;;;30.90;1.00;;;;;;5013617;28;20212;-71
2023/10/31 04:05:49;;;;;;;1.63;0.63;;;30.60;1.00;;;;;;5013693;28;20241;-70
2023/10/31 04:08:16;;;;;;;3.67;0.50;;;30.70;1.00;;;;;;5014184;28;20641;-70
2023/10/31 04:10:43;;;;;;;2.17;0.53;;;30.60;1.00;;;;;;5013793;28;20182;-71
2023/10/31 04:13:11;;;;;;;3.80;0.70;;;30.70;1.00;;;;;;5013265;28;20174;-70
2023/10/31 04:15:39;;;;;;;8.20;2.23;;;30.80;1.00;;;;;;5013362;28;20171;-69
2023/10/31 04:18:06;;;;;;;11.40;2.03;;;30.30;1.00;;;;;;5013467;28;20313;-70
2023/10/31 04:20:33;;;;;;;8.47;2.20;;;30.40;1.00;;;;;;5013535;28;20185;-71
2023/10/31 04:23:00;;;;;;;9.47;2.00;;;30.80;1.00;;;;;;5013798;28;20202;-70
2023/10/31 04:25:29;;;;;;;15.70;2.87;;;31.00;1.00;;;;;;5013607;28;20678;-71
2023/10/31 04:27:56;;;;;;;8.47;2.37;;;31.20;1.00;;;;;;5013284;28;20174;-71
2023/10/31 04:30:23;;;;;;;19.30;2.63;;;30.60;1.00;;;;;;5013194;28;20199;-70
2023/10/31 04:32:50;;;;;;;13.50;2.57;;;30.20;4.30;;;;;;5013762;28;20646;-69
2023/10/31 04:35:18;;;;;;;10.37;2.73;;;30.10;5.20;;;;;;5013234;28;20755;-70
2023/10/31 04:37:45;;;;;;;16.40;3.00;;;29.90;9.90;;;;;;5013325;28;20196;-69
2023/10/31 04:40:13;;;;;;;16.83;3.37;;;29.50;14.00;;;;;;5013363;28;20547;-70
2023/10/31 04:42:41;;;;;;;13.70;2.60;;;29.80;15.90;;;;;;5011937;28;20525;-71
2023/10/31 04:45:09;;;;;;;15.87;2.63;;;29.60;16.10;;;;;;5013105;28;20296;-70
2023/10/31 04:47:36;;;;;;;13.03;2.77;;;29.50;17.20;;;;;;5013074;28;20191;-70
2023/10/31 04:50:03;;;;;;;10.13;2.87;;;29.80;18.50;;;;;;5013014;28;20573;-71
2023/10/31 04:52:31;;;;;;;19.53;2.77;;;29.10;20.70;;;;;;5012991;28;20182;-71
2023/10/31 04:54:58;;;;;;;14.47;3.30;;;29.20;25.50;;;;;;5013592;28;20193;-71
2023/10/31 04:57:25;;;;;;;18.63;3.60;;;28.80;28.90;;;;;;5016158;28;20182;-70
2023/10/31 04:59:54;;;;;;;15.50;3.57;;;28.70;28.30;;;;;;5016847;28;20189;-69
2023/10/31 05:02:24;;;;;;;14.37;2.90;;;28.10;30.00;;;;;;5016800;28;20213;-71
2023/10/31 05:04:52;;;;;;;18.03;3.73;;;27.90;35.30;;;;;;5015275;28;20237;-70
2023/10/31 05:07:19;;;;;;;14.03;3.10;;;27.80;36.00;;;;;;5016536;28;20182;-69
2023/10/31 05:09:47;;;;;;;16.57;3.03;;;27.60;37.80;;;;;;5016439;28;20587;-69
2023/10/31 05:12:14;;;;;;;39.20;4.97;;;27.50;39.70;;;;;;5016488;28;20178;-69
2023/10/31 05:14:41;;;;;;;25.43;4.40;;;27.20;39.60;;;;;;5016342;28;20664;-73
2023/10/31 05:17:09;;;;;;;12.37;3.03;;;27.10;46.70;;;;;;5016510;28;20273;-70
2023/10/31 05:19:36;;;;;;;14.47;3.10;;;26.80;48.20;;;;;;5016536;28;20178;-69
2023/10/31 05:22:03;;;;;;;9.97;2.47;;;26.80;53.10;;;;;;5016444;28;20531;-70
2023/10/31 05:24:32;;;;;;;14.70;3.43;;;27.00;55.80;;;;;;5016455;28;20189;-71
2023/10/31 05:26:59;;;;;;;12.50;2.63;;;26.80;55.80;;;;;;5016262;28;20180;-68
2023/10/31 05:29:26;;;;;;;19.27;2.63;;;26.90;57.80;;;;;;5016257;28;20174;-71
2023/10/31 05:35:16;;;;;;;21.43;2.87;;;26.60;65.50;;;;;;5015516;28;20227;-69
2023/10/31 05:37:43;;;;;;;11.60;2.10;;;26.60;68.00;;;;;;5016122;28;20181;-72
2023/10/31 05:40:11;;;;;;;15.47;3.40;;;26.60;64.00;;;;;;5016376;28;20178;-69
2023/10/31 05:42:39;;;;;;;14.37;3.17;;;26.50;63.80;;;;;;5016196;28;20212;-69
2023/10/31 05:45:07;;;;;;;20.03;4.37;;;26.80;60.20;;;;;;5015779;28;20213;-70
2023/10/31 05:47:34;;;;;;;15.50;3.27;;;26.20;65.30;;;;;;5015876;28;20283;-69
2023/10/31 05:50:01;;;;;;;14.43;3.70;;;26.20;70.20;;;;;;5015224;28;20670;-67
2023/10/31 05:52:37;;;;;;;13.23;2.77;;;26.30;73.60;;;;;;5015146;28;20213;-74
2023/10/31 05:55:06;;;;;;;17.50;3.63;;;26.00;76.00;;;;;;5002959;28;20201;-72
2023/10/31 05:57:33;;;;;;;17.00;3.57;;;26.00;76.70;;;;;;5009085;28;20651;-70
2023/10/31 06:00:00;;;;;;;14.67;3.53;;;25.80;80.70;;;;;;4999390;28;20260;-72
2023/10/31 06:02:29;;;;;;;12.50;2.60;;;26.00;81.30;;;;;;5010781;28;20197;-74
2023/10/31 06:04:57;;;;;;;12.57;2.60;;;26.10;79.80;;;;;;5013801;28;20228;-72
2023/10/31 06:07:24;;;;;;;12.73;2.30;;;26.00;77.30;;;;;;5013471;28;20212;-71
2023/10/31 06:09:51;;;;;;;28.40;4.40;;;25.80;77.10;;;;;;5013966;28;20813;-72
2023/10/31 06:12:19;;;;;;;18.53;3.10;;;25.70;76.80;;;;;;5014193;28;20670;-72
2023/10/31 06:14:46;;;;;;;17.40;3.30;;;25.30;75.10;;;;;;5013188;28;20193;-69
2023/10/31 06:17:13;;;;;;;94.00;11.57;;;24.90;84.10;;;;;;5014041;28;20190;-67
2023/10/31 06:19:45;;;;;;;22.80;3.63;;;24.80;90.00;;;;;;5013562;28;20189;-69
2023/10/31 06:22:13;;;;;;;12.53;2.97;;;25.00;91.60;;;;;;5013414;28;20560;-66
2023/10/31 06:24:40;;;;;;;14.93;3.33;;;25.10;90.30;;;;;;5016304;28;20235;-68
2023/10/31 06:27:08;;;;;;;9.23;2.33;;;25.20;85.00;;;;;;5033700;28;20590;-68
2023/10/31 06:29:35;;;;;;;12.90;2.47;;;25.30;85.50;;;;;;5023141;28;20197;-68
2023/10/31 06:32:02;;;;;;;12.43;2.40;;;25.30;84.80;;;;;;5013936;28;20265;-70
2023/10/31 06:34:29;;;;;;;9.33;2.87;;;25.10;84.50;;;;;;5013713;28;20189;-70
2023/10/31 06:36:57;;;;;;;12.27;2.87;;;24.80;87.50;;;;;;5013329;28;20229;-68
2023/10/31 06:39:24;;;;;;;11.77;2.67;;;24.50;86.40;;;;;;5013829;28;20199;-69
2023/10/31 06:41:55;;;;;;;10.57;2.27;;;24.00;90.30;;;;;;5024412;28;20643;-68
2023/10/31 06:44:23;;;;;;;11.70;2.30;;;24.10;91.00;;;;;;5032812;28;20185;-68
2023/10/31 06:46:50;;;;;;;9.10;2.53;;;24.00;91.30;;;;;;5034269;28;20181;-69
2023/10/31 06:49:19;;;;;;;10.90;2.43;;;23.90;91.20;;;;;;5027227;28;20176;-67
2023/10/31 06:51:46;;;;;;;11.13;2.50;;;23.70;93.40;;;;;;5013930;28;20794;-67
2023/10/31 06:54:14;;;;;;;10.47;2.93;;;23.60;96.00;;;;;;5014549;28;20597;-69
2023/10/31 06:56:41;;;;;;;10.27;2.37;;;23.60;97.70;;;;;;5014133;28;20182;-69
2023/10/31 06:59:08;;;;;;;10.83;2.37;;;23.50;97.40;;;;;;5014344;28;20182;-70
2023/10/31 07:01:36;;;;;;;15.23;3.07;;;23.50;99.20;;;;;;5014548;28;20263;-69
2023/10/31 07:04:03;;;;;;;8.40;2.27;;;23.30;99.90;;;;;;5013769;28;20186;-69
2023/10/31 07:06:31;;;;;;;14.80;2.83;;;23.30;99.90;;;;;;5014328;28;20690;-70
2023/10/31 07:09:00;;;;;;;8.33;2.43;;;23.30;99.90;;;;;;5014415;28;20171;-68
2023/10/31 07:11:30;;;;;;;10.57;1.93;;;23.10;99.90;;;;;;5014439;28;20713;-69
2023/10/31 07:13:57;;;;;;;7.03;2.13;;;23.00;99.90;;;;;;5013755;28;20225;-69
2023/10/31 07:16:57;;;;;;;10.40;2.20;;;22.80;99.90;;;;;;5014362;28;20181;-70
2023/10/31 07:19:24;;;;;;;21.33;2.83;;;22.80;99.90;;;;;;5011693;28;20218;-68
2023/10/31 07:21:52;;;;;;;15.60;3.03;;;22.50;99.90;;;;;;5013881;28;20224;-69
2023/10/31 07:24:20;;;;;;;18.70;2.73;;;22.40;99.90;;;;;;5012726;28;20671;-69
2023/10/31 07:26:47;;;;;;;9.70;2.57;;;22.50;99.90;;;;;;5012567;28;20221;-69
2023/10/31 07:29:25;;;;;;;9.03;2.17;;;22.50;99.90;;;;;;5014053;28;20204;-69
2023/10/31 07:31:54;;;;;;;9.30;2.13;;;22.50;99.90;;;;;;5013619;28;20201;-69
2023/10/31 07:34:21;;;;;;;9.50;2.17;;;22.30;99.90;;;;;;5013587;28;20561;-67
2023/10/31 07:36:48;;;;;;;8.30;1.73;;;22.10;99.90;;;;;;5014227;28;20244;-71
2023/10/31 07:39:16;;;;;;;13.23;2.37;;;22.00;99.90;;;;;;5013863;28;20635;-66
2023/10/31 07:41:43;;;;;;;9.47;2.70;;;21.80;99.90;;;;;;5013894;28;20186;-72
2023/10/31 07:44:10;;;;;;;16.90;2.77;;;21.50;99.90;;;;;;5014018;28;20174;-73
2023/10/31 07:46:37;;;;;;;11.87;2.63;;;21.30;99.90;;;;;;5013893;28;20210;-74
2023/10/31 07:49:05;;;;;;;14.97;3.20;;;21.20;99.90;;;;;;5013702;28;20279;-68
2023/10/31 07:51:32;;;;;;;17.60;2.57;;;21.00;99.90;;;;;;5013764;28;20706;-69
2023/10/31 07:54:03;;;;;;;16.03;2.50;;;21.00;99.90;;;;;;5012612;28;20204;-71
2023/10/31 08:03:14;;;;;;;18.33;2.73;;;20.60;99.90;;;;;;4989725;28;20300;-73
2023/10/31 08:05:42;;;;;;;12.13;2.47;;;20.50;99.90;;;;;;5012224;28;20645;-72
2023/10/31 08:08:09;;;;;;;12.43;2.20;;;20.40;99.90;;;;;;5012396;28;20174;-72
2023/10/31 08:10:37;;;;;;;11.00;2.13;;;20.30;99.90;;;;;;5011819;28;20269;-72
2023/10/31 08:13:04;;;;;;;13.77;2.20;;;20.30;99.90;;;;;;5012313;28;20635;-73
2023/10/31 08:15:31;;;;;;;11.53;2.30;;;20.20;99.90;;;;;;5012147;28;20185;-73
2023/10/31 08:17:59;;;;;;;14.63;2.03;;;20.20;99.90;;;;;;5012128;28;20236;-73
2023/10/31 08:20:26;;;;;;;15.83;2.30;;;20.10;99.90;;;;;;5010981;28;20207;-74
2023/10/31 08:22:53;;;;;;;12.67;2.27;;;20.10;99.90;;;;;;5012206;28;20215;-75
2023/10/31 08:25:22;;;;;;;15.60;2.67;;;20.10;99.90;;;;;;5013156;28;20578;-73
2023/10/31 08:27:49;;;;;;;16.83;2.70;;;20.00;99.90;;;;;;5013260;28;20528;-76
2023/10/31 08:30:32;;;;;;;14.07;2.57;;;19.90;99.90;;;;;;5014949;28;20640;-73
2023/10/31 08:32:59;;;;;;;8.60;1.90;;;19.80;99.90;;;;;;5016193;28;20193;-73
2023/10/31 08:35:27;;;;;;;6.63;1.90;;;19.60;99.90;;;;;;5017050;28;20190;-69
2023/10/31 08:37:55;;;;;;;7.33;1.80;;;19.70;99.90;;;;;;5017466;28;20185;-69
2023/10/31 08:40:22;;;;;;;13.90;2.70;;;19.70;99.90;;;;;;5017468;28;20182;-70
2023/10/31 08:42:49;;;;;;;9.70;1.70;;;19.70;99.90;;;;;;5017558;28;20653;-72
2023/10/31 08:45:16;;;;;;;11.27;1.73;;;19.70;99.90;;;;;;5017336;28;20208;-67
2023/10/31 08:47:44;;;;;;;9.30;2.10;;;19.70;99.90;;;;;;5017844;28;20200;-75
2023/10/31 08:50:13;;;;;;;9.63;1.97;;;19.60;99.90;;;;;;5017403;28;20181;-74
2023/10/31 08:52:42;;;;;;;8.67;2.30;;;19.60;99.90;;;;;;5017862;28;20190;-73
2023/10/31 08:55:09;;;;;;;10.10;1.93;;;19.50;99.90;;;;;;5018011;28;20179;-73
2023/10/31 08:57:37;;;;;;;8.03;2.30;;;19.50;99.90;;;;;;5018124;28;20240;-70
2023/10/31 09:00:04;;;;;;;11.60;2.20;;;19.40;99.90;;;;;;5018281;28;20213;-73
2023/10/31 09:02:32;;;;;;;11.83;2.60;;;19.40;99.90;;;;;;5018053;28;20629;-71
2023/10/31 09:04:59;;;;;;;8.47;2.20;;;19.40;99.90;;;;;;5017558;28;20308;-72
2023/10/31 09:07:27;;;;;;;8.23;2.30;;;19.30;99.90;;;;;;5017943;28;20174;-75
2023/10/31 09:09:54;;;;;;;12.30;2.53;;;19.30;99.90;;;;;;5017448;28;20186;-75
2023/10/31 09:12:21;;;;;;;8.07;2.13;;;19.30;99.90;;;;;;5016978;28;20187;-72
2023/10/31 09:14:49;;;;;;;14.17;2.70;;;19.30;99.90;;;;;;5017166;28;20194;-68
2023/10/31 09:17:16;;;;;;;11.57;2.17;;;19.20;99.90;;;;;;5016673;28;20173;-73
2023/10/31 09:19:43;;;;;;;12.50;2.63;;;19.20;99.90;;;;;;5015520;28;20190;-73
2023/10/31 09:22:11;;;;;;;8.27;2.27;;;19.20;99.90;;;;;;5017147;28;20236;-75
2023/10/31 09:24:40;;;;;;;10.20;1.97;;;19.30;99.90;;;;;;5017198;28;20737;-74
2023/10/31 09:27:07;;;;;;;12.00;2.43;;;19.20;99.90;;;;;;5016844;28;20196;-71
2023/10/31 09:29:34;;;;;;;13.70;2.40;;;19.10;99.90;;;;;;5015913;28;20322;-72
2023/10/31 09:32:01;;;;;;;12.50;2.47;;;19.00;99.90;;;;;;5016415;28;20196;-74
2023/10/31 09:34:29;;;;;;;7.33;2.30;;;19.00;99.90;;;;;;5016230;28;20244;-70
2023/10/31 09:36:56;;;;;;;7.97;2.20;;;18.90;99.90;;;;;;5015806;28;20201;-74
2023/10/31 09:39:23;;;;;;;10.00;2.07;;;19.00;99.90;;;;;;5016305;28;20666;-73
2023/10/31 09:41:51;;;;;;;15.30;2.27;;;19.00;99.90;;;;;;5016156;28;20237;-67
2023/10/31 09:44:19;;;;;;;5.97;1.80;;;19.00;99.90;;;;;;5016214;28;20256;-73
2023/10/31 09:46:48;;;;;;;9.63;2.67;;;19.00;99.90;;;;;;5015348;28;20218;-73
2023/10/31 09:49:16;;;;;;;10.30;2.30;;;18.90;99.90;;;;;;5016235;28;20536;-72
2023/10/31 09:51:44;;;;;;;11.13;2.60;;;18.90;99.90;;;;;;5015654;28;20708;-68
2023/10/31 09:54:15;;;;;;;9.37;2.20;;;18.80;99.90;;;;;;5015989;28;20170;-65
2023/10/31 09:56:43;;;;;;;10.60;2.20;;;18.80;99.90;;;;;;5018390;28;20191;-73
2023/10/31 09:59:10;;;;;;;9.80;2.07;;;18.70;99.90;;;;;;5017012;28;20662;-68
2023/10/31 10:01:38;;;;;;;5.80;1.80;;;18.70;99.90;;;;;;5015954;28;20225;-69
2023/10/31 10:04:06;;;;;;;11.07;2.77;;;18.70;99.90;;;;;;5015578;28;20188;-70
2023/10/31 10:06:34;;;;;;;12.43;2.30;;;18.60;99.90;;;;;;5015886;28;20217;-70
2023/10/31 10:09:06;;;;;;;10.27;2.13;;;18.60;99.90;;;;;;5013748;28;20206;-65
2023/10/31 10:11:35;;;;;;;4.73;1.97;;;18.50;99.90;;;;;;5015492;28;20200;-72
2023/10/31 10:14:02;;;;;;;15.50;2.57;;;18.60;99.90;;;;;;5015371;28;20527;-73
2023/10/31 10:16:33;;;;;;;10.67;2.40;;;18.60;99.90;;;;;;5015550;28;20182;-72
2023/10/31 10:19:21;;;;;;;9.53;2.60;;;18.70;99.90;;;;;;5015142;28;20190;-73
2023/10/31 10:21:51;;;;;;;7.17;1.70;;;18.70;99.90;;;;;;5015368;28;20173;-74
2023/10/31 10:24:19;;;;;;;10.37;2.67;;;18.80;99.90;;;;;;5015149;28;20639;-73
2023/10/31 10:26:47;;;;;;;14.13;2.20;;;18.80;99.90;;;;;;5015045;28;20236;-72
2023/10/31 10:29:15;;;;;;;10.30;2.93;;;18.70;99.90;;;;;;5014913;28;20178;-72
2023/10/31 10:31:43;;;;;;;9.80;2.63;;;18.70;99.90;;;;;;5015317;28;20186;-71
2023/10/31 10:34:10;;;;;;;7.87;1.87;;;18.70;99.90;;;;;;5015170;28;20182;-71
2023/10/31 10:36:37;;;;;;;7.90;2.17;;;18.80;99.90;;;;;;5015145;28;20190;-73
2023/10/31 10:39:07;;;;;;;8.90;2.23;;;18.90;99.90;;;;;;5014758;28;20717;-71
2023/10/31 10:41:38;;;;;;;13.40;2.80;;;19.10;99.90;;;;;;4995494;28;20218;-68
2023/10/31 10:44:09;;;;;;;15.03;2.13;;;19.10;99.90;;;;;;4995424;28;20179;-72
2023/10/31 10:46:39;;;;;;;14.07;2.30;;;19.20;99.90;;;;;;5012757;28;20228;-72
2023/10/31 10:49:08;;;;;;;11.80;2.57;;;19.20;99.90;;;;;;5014711;28;20654;-73
2023/10/31 10:51:58;;;;;;;15.43;2.23;;;19.30;99.90;;;;;;5014645;28;20229;-73
2023/10/31 10:54:49;;;;;;;9.30;2.37;;;19.30;99.90;;;;;;5014077;28;20182;-72
2023/10/31 10:57:23;;;;;;;16.50;2.90;;;19.40;99.90;;;;;;5014398;28;20187;-72
2023/10/31 10:59:54;;;;;;;10.40;2.13;;;19.40;99.90;;;;;;5014323;28;20197;-68
2023/10/31 11:02:23;;;;;;;11.30;2.17;;;19.40;99.90;;;;;;5014737;28;20218;-69
2023/10/31 11:04:51;;;;;;;9.70;2.50;;;19.30;99.90;;;;;;5014317;28;20199;-71
2023/10/31 11:07:22;;;;;;;12.33;2.33;;;19.40;99.90;;;;;;5014607;28;20188;-70
2023/10/31 11:09:49;;;;;;;8.33;2.37;;;19.40;99.90;;;;;;5013199;28;20625;-70
2023/10/31 11:12:17;;;;;;;11.60;2.77;;;19.40;99.90;;;;;;5014524;28;20512;-73
2023/10/31 11:14:45;;;;;;;9.07;2.43;;;19.30;99.90;;;;;;5014700;28;20224;-71
2023/10/31 11:17:40;;;;;;;11.13;2.40;;;19.10;99.90;;;;;;5014423;28;20228;-70
2023/10/31 11:20:10;;;;;;;13.27;3.30;;;19.10;99.90;;;;;;5014328;28;20183;-69
2023/10/31 11:22:43;;;;;;;11.90;2.50;;;19.00;99.90;;;;;;5014512;28;20233;-67
2023/10/31 11:25:19;;;;;;;17.00;2.67;;;19.00;99.90;;;;;;5014449;28;20213;-69
2023/10/31 11:27:47;;;;;;;14.57;2.73;;;18.90;99.90;;;;;;5014384;28;20190;-72
2023/10/31 11:30:27;;;;;;;11.37;2.53;;;18.90;99.90;;;;;;5014352;28;20183;-75
2023/10/31 11:32:55;;;;;;;17.67;2.70;;;18.80;99.90;;;;;;5014917;28;20178;-73
2023/10/31 11:35:23;;;;;;;18.77;3.03;;;18.90;99.90;;;;;;5014101;28;20270;-71
2023/10/31 11:38:16;;;;;;;15.60;2.90;;;18.90;99.90;;;;;;5013371;28;20188;-74
2023/10/31 11:40:50;;;;;;;12.10;2.57;;;18.90;99.90;;;;;;5011861;28;20198;-73
2023/10/31 11:43:17;;;;;;;13.43;2.70;;;18.90;99.90;;;;;;5014390;28;20200;-73
2023/10/31 11:45:47;;;;;;;7.07;2.40;;;18.90;99.90;;;;;;5013590;28;20740;-73
2023/10/31 11:48:15;;;;;;;17.87;3.07;;;18.80;99.90;;;;;;5013191;28;20189;-71
2023/10/31 11:50:42;;;;;;;13.73;2.57;;;18.70;99.90;;;;;;5013457;28;20218;-73
2023/10/31 11:53:13;;;;;;;11.00;2.67;;;18.70;99.90;;;;;;5013639;28;20182;-73
2023/10/31 11:55:43;;;;;;;11.77;2.47;;;18.60;99.90;;;;;;5014095;28;20178;-72
2023/10/31 11:58:30;;;;;;;14.30;3.10;;;18.50;99.90;;;;;;5013732;28;20194;-73
2023/10/31 12:01:05;;;;;;;14.33;3.00;;;18.40;99.90;;;;;;5013529;28;20187;-73
2023/10/31 12:03:49;;;;;;;16.27;3.13;;;18.30;99.90;;;;;;5013419;28;20252;-74
2023/10/31 12:06:17;;;;;;;11.17;2.60;;;18.30;99.90;;;;;;5011447;28;20323;-72
2023/10/31 12:08:47;;;;;;;14.83;3.10;;;18.20;99.90;;;;;;5013359;28;20209;-69
2023/10/31 12:11:24;;;;;;;19.83;3.23;;;18.10;99.90;;;;;;5013059;28;20269;-71
2023/10/31 12:14:06;;;;;;;14.07;2.60;;;18.00;99.90;;;;;;5013634;28;20708;-72
2023/10/31 12:16:34;;;;;;;14.27;2.67;;;18.00;99.90;;;;;;4996006;28;20190;-73
2023/10/31 12:19:04;;;;;;;13.57;3.03;;;17.90;99.90;;;;;;5013439;28;20182;-71
2023/10/31 12:21:47;;;;;;;15.70;3.07;;;17.80;99.90;;;;;;5012593;28;20231;-70
2023/10/31 12:24:18;;;;;;;13.47;2.70;;;17.80;99.90;;;;;;5012962;28;20224;-68
2023/10/31 12:26:46;;;;;;;12.90;2.77;;;17.70;99.90;;;;;;5013013;28;20285;-72
2023/10/31 12:29:15;;;;;;;10.27;2.73;;;17.60;99.90;;;;;;5013034;28;20182;-71
2023/10/31 12:31:57;;;;;;;9.70;2.67;;;17.60;99.90;;;;;;5012969;28;20191;-73
2023/10/31 12:34:25;;;;;;;15.60;2.47;;;17.50;99.90;;;;;;5013043;28;20190;-72
2023/10/31 12:36:54;;;;;;;15.63;2.83;;;17.40;99.90;;;;;;5012915;28;20174;-71
2023/10/31 12:39:26;;;;;;;7.30;2.33;;;17.40;99.90;;;;;;5012931;28;20212;-73
2023/10/31 12:41:54;;;;;;;18.87;3.87;;;17.40;99.90;;;;;;5013017;28;20190;-70
2023/10/31 12:44:26;;;;;;;13.70;3.30;;;17.40;99.90;;;;;;5013342;28;20188;-70
2023/10/31 12:46:54;;;;;;;13.90;2.67;;;17.40;99.90;;;;;;5011481;28;20655;-74
2023/10/31 12:49:23;;;;;;;17.77;2.97;;;17.50;99.90;;;;;;5012927;28;20191;-70
2023/10/31 12:51:57;;;;;;;10.33;3.00;;;17.40;99.90;;;;;;5012569;28;20248;-72
2023/10/31 12:54:35;;;;;;;15.63;2.70;;;17.40;99.90;;;;;;5011775;28;20212;-70
2023/10/31 12:57:13;;;;;;;12.13;3.50;;;17.40;99.90;;;;;;5010284;28;20181;-70
2023/10/31 12:59:40;;;;;;;18.23;2.97;;;17.40;99.90;;;;;;5009673;28;20212;-72
2023/10/31 13:02:10;;;;;;;15.47;3.37;;;17.40;99.90;;;;;;5012206;28;20261;-65
2023/10/31 13:04:37;;;;;;;13.10;2.83;;;17.30;99.90;;;;;;5012584;28;20190;-69